sensor_id;sensor_type;location;lat;lon;timestamp;P1;durP1;ratioP1;P2;durP2;ratioP2
65581;SDS011;52231;40.090;18.348;2022-09-09T00:00:49;18.30;;;6.70;;
65581;SDS011;52231;40.090;18.348;2022-09-09T00:03:27;16.35;;;6.22;;
65581;SDS011;52231;40.090;18.348;2022-09-09T00:07:05;15.60;;;6.38;;
65581;SDS011;52231;40.090;18.348;2022-09-09T00:09:25;19.20;;;6.88;;
65581;SDS011;52231;40.090;18.348;2022-09-09T00:12:00;17.55;;;6.47;;
65581;SDS011;52231;40.090;18.348;2022-09-09T00:14:40;17.75;;;6.00;;
65581;SDS011;52231;40.090;18.348;2022-09-09T00:17:24;15.90;;;6.15;;
65581;SDS011;52231;40.090;18.348;2022-09-09T00:23:49;17.50;;;6.13;;
65581;SDS011;52231;40.090;18.348;2022-09-09T00:29:39;14.82;;;6.90;;
65581;SDS011;52231;40.090;18.348;2022-09-09T00:32:14;15.63;;;6.50;;
65581;SDS011;52231;40.090;18.348;2022-09-09T00:34:51;16.50;;;5.80;;
65581;SDS011;52231;40.090;18.348;2022-09-09T00:37:22;14.00;;;6.00;;
65581;SDS011;52231;40.090;18.348;2022-09-09T00:39:57;17.20;;;6.20;;
65581;SDS011;52231;40.090;18.348;2022-09-09T00:52:59;20.13;;;6.80;;
65581;SDS011;52231;40.090;18.348;2022-09-09T00:55:54;15.02;;;5.95;;
65581;SDS011;52231;40.090;18.348;2022-09-09T00:58:30;15.38;;;5.80;;
65581;SDS011;52231;40.090;18.348;2022-09-09T01:09:07;21.10;;;6.50;;
65581;SDS011;52231;40.090;18.348;2022-09-09T01:14:40;19.15;;;6.63;;
65581;SDS011;52231;40.090;18.348;2022-09-09T01:17:21;20.02;;;6.43;;
65581;SDS011;52231;40.090;18.348;2022-09-09T01:28:21;19.00;;;6.63;;
65581;SDS011;52231;40.090;18.348;2022-09-09T01:30:58;23.15;;;6.50;;
65581;SDS011;52231;40.090;18.348;2022-09-09T01:33:34;17.65;;;6.95;;
65581;SDS011;52231;40.090;18.348;2022-09-09T01:36:07;21.58;;;7.40;;
65581;SDS011;52231;40.090;18.348;2022-09-09T01:38:52;18.38;;;7.28;;
65581;SDS011;52231;40.090;18.348;2022-09-09T01:41:21;20.77;;;7.85;;
65581;SDS011;52231;40.090;18.348;2022-09-09T01:44:09;18.63;;;6.93;;
65581;SDS011;52231;40.090;18.348;2022-09-09T01:46:40;17.38;;;6.88;;
65581;SDS011;52231;40.090;18.348;2022-09-09T01:49:14;16.75;;;6.20;;
65581;SDS011;52231;40.090;18.348;2022-09-09T01:52:02;24.70;;;8.02;;
65581;SDS011;52231;40.090;18.348;2022-09-09T01:54:34;18.67;;;7.07;;
65581;SDS011;52231;40.090;18.348;2022-09-09T01:57:11;19.50;;;7.13;;
65581;SDS011;52231;40.090;18.348;2022-09-09T02:00:04;19.63;;;6.93;;
65581;SDS011;52231;40.090;18.348;2022-09-09T02:02:44;19.50;;;7.50;;
65581;SDS011;52231;40.090;18.348;2022-09-09T02:08:13;18.13;;;6.63;;
65581;SDS011;52231;40.090;18.348;2022-09-09T02:10:56;19.48;;;6.95;;
65581;SDS011;52231;40.090;18.348;2022-09-09T02:13:44;19.17;;;6.47;;
65581;SDS011;52231;40.090;18.348;2022-09-09T02:16:49;23.35;;;7.63;;
65581;SDS011;52231;40.090;18.348;2022-09-09T02:19:23;16.27;;;6.95;;
65581;SDS011;52231;40.090;18.348;2022-09-09T02:22:18;22.73;;;6.55;;
65581;SDS011;52231;40.090;18.348;2022-09-09T02:24:49;19.38;;;7.63;;
65581;SDS011;52231;40.090;18.348;2022-09-09T02:27:25;22.23;;;7.78;;
65581;SDS011;52231;40.090;18.348;2022-09-09T02:30:12;19.13;;;7.88;;
65581;SDS011;52231;40.090;18.348;2022-09-09T02:32:47;20.55;;;6.80;;
65581;SDS011;52231;40.090;18.348;2022-09-09T02:35:21;23.33;;;6.90;;
65581;SDS011;52231;40.090;18.348;2022-09-09T02:37:52;21.08;;;7.50;;
65581;SDS011;52231;40.090;18.348;2022-09-09T02:40:24;22.83;;;7.65;;
65581;SDS011;52231;40.090;18.348;2022-09-09T02:42:59;22.55;;;7.35;;
65581;SDS011;52231;40.090;18.348;2022-09-09T02:46:04;20.15;;;7.30;;
65581;SDS011;52231;40.090;18.348;2022-09-09T02:48:33;20.10;;;7.43;;
65581;SDS011;52231;40.090;18.348;2022-09-09T02:57:23;20.67;;;7.43;;
65581;SDS011;52231;40.090;18.348;2022-09-09T02:59:55;21.80;;;7.20;;
65581;SDS011;52231;40.090;18.348;2022-09-09T03:02:25;26.02;;;7.15;;
65581;SDS011;52231;40.090;18.348;2022-09-09T03:05:00;19.25;;;6.68;;
65581;SDS011;52231;40.090;18.348;2022-09-09T03:07:29;24.95;;;7.80;;
65581;SDS011;52231;40.090;18.348;2022-09-09T03:09:57;36.13;;;8.88;;
65581;SDS011;52231;40.090;18.348;2022-09-09T03:12:27;20.90;;;6.78;;
65581;SDS011;52231;40.090;18.348;2022-09-09T03:14:55;29.98;;;7.95;;
65581;SDS011;52231;40.090;18.348;2022-09-09T03:17:24;22.92;;;6.75;;
65581;SDS011;52231;40.090;18.348;2022-09-09T03:19:54;19.17;;;6.47;;
65581;SDS011;52231;40.090;18.348;2022-09-09T03:22:23;24.30;;;7.25;;
65581;SDS011;52231;40.090;18.348;2022-09-09T03:24:54;14.77;;;6.30;;
65581;SDS011;52231;40.090;18.348;2022-09-09T03:27:22;16.00;;;6.05;;
65581;SDS011;52231;40.090;18.348;2022-09-09T03:29:51;16.60;;;5.90;;
65581;SDS011;52231;40.090;18.348;2022-09-09T03:32:23;17.25;;;6.05;;
65581;SDS011;52231;40.090;18.348;2022-09-09T03:34:54;15.90;;;7.03;;
65581;SDS011;52231;40.090;18.348;2022-09-09T03:37:23;18.38;;;5.97;;
65581;SDS011;52231;40.090;18.348;2022-09-09T03:39:53;17.65;;;6.18;;
65581;SDS011;52231;40.090;18.348;2022-09-09T03:42:24;20.20;;;6.50;;
65581;SDS011;52231;40.090;18.348;2022-09-09T03:44:54;18.95;;;6.57;;
65581;SDS011;52231;40.090;18.348;2022-09-09T03:47:25;15.40;;;6.32;;
65581;SDS011;52231;40.090;18.348;2022-09-09T03:50:01;15.02;;;6.22;;
65581;SDS011;52231;40.090;18.348;2022-09-09T03:52:29;17.33;;;6.68;;
65581;SDS011;52231;40.090;18.348;2022-09-09T03:54:58;21.30;;;6.63;;
65581;SDS011;52231;40.090;18.348;2022-09-09T03:57:26;12.70;;;5.85;;
65581;SDS011;52231;40.090;18.348;2022-09-09T04:02:22;16.83;;;5.93;;
65581;SDS011;52231;40.090;18.348;2022-09-09T04:04:50;16.92;;;5.82;;
65581;SDS011;52231;40.090;18.348;2022-09-09T04:07:19;17.55;;;5.90;;
65581;SDS011;52231;40.090;18.348;2022-09-09T04:12:15;17.02;;;5.88;;
65581;SDS011;52231;40.090;18.348;2022-09-09T04:14:43;18.10;;;6.10;;
65581;SDS011;52231;40.090;18.348;2022-09-09T04:19:39;20.85;;;6.20;;
65581;SDS011;52231;40.090;18.348;2022-09-09T04:22:10;19.40;;;6.35;;
65581;SDS011;52231;40.090;18.348;2022-09-09T04:27:06;17.02;;;6.38;;
65581;SDS011;52231;40.090;18.348;2022-09-09T04:29:35;17.90;;;6.28;;
65581;SDS011;52231;40.090;18.348;2022-09-09T04:32:04;16.27;;;6.15;;
65581;SDS011;52231;40.090;18.348;2022-09-09T04:34:32;15.82;;;6.00;;
65581;SDS011;52231;40.090;18.348;2022-09-09T04:37:01;17.60;;;6.32;;
65581;SDS011;52231;40.090;18.348;2022-09-09T04:41:59;15.57;;;6.13;;
65581;SDS011;52231;40.090;18.348;2022-09-09T04:46:55;17.27;;;6.78;;
65581;SDS011;52231;40.090;18.348;2022-09-09T04:49:24;16.77;;;5.78;;
65581;SDS011;52231;40.090;18.348;2022-09-09T04:52:11;14.55;;;6.78;;
65581;SDS011;52231;40.090;18.348;2022-09-09T04:54:40;17.80;;;6.07;;
65581;SDS011;52231;40.090;18.348;2022-09-09T04:57:10;16.45;;;5.75;;
65581;SDS011;52231;40.090;18.348;2022-09-09T04:59:40;16.85;;;6.55;;
65581;SDS011;52231;40.090;18.348;2022-09-09T05:02:09;18.30;;;6.70;;
65581;SDS011;52231;40.090;18.348;2022-09-09T05:04:37;22.00;;;7.35;;
65581;SDS011;52231;40.090;18.348;2022-09-09T05:07:07;17.33;;;5.88;;
65581;SDS011;52231;40.090;18.348;2022-09-09T05:09:35;17.48;;;5.80;;
65581;SDS011;52231;40.090;18.348;2022-09-09T05:12:04;17.42;;;6.28;;
65581;SDS011;52231;40.090;18.348;2022-09-09T05:14:35;17.73;;;5.65;;
65581;SDS011;52231;40.090;18.348;2022-09-09T05:17:05;15.80;;;5.10;;
65581;SDS011;52231;40.090;18.348;2022-09-09T05:19:36;17.67;;;5.50;;
65581;SDS011;52231;40.090;18.348;2022-09-09T05:22:05;20.90;;;5.85;;
65581;SDS011;52231;40.090;18.348;2022-09-09T05:24:41;17.80;;;5.25;;
65581;SDS011;52231;40.090;18.348;2022-09-09T05:27:09;14.65;;;5.38;;
65581;SDS011;52231;40.090;18.348;2022-09-09T05:29:58;17.20;;;4.68;;
65581;SDS011;52231;40.090;18.348;2022-09-09T05:32:26;14.48;;;4.88;;
65581;SDS011;52231;40.090;18.348;2022-09-09T05:34:55;18.67;;;5.25;;
65581;SDS011;52231;40.090;18.348;2022-09-09T05:37:23;21.45;;;4.78;;
65581;SDS011;52231;40.090;18.348;2022-09-09T05:39:51;18.08;;;5.20;;
65581;SDS011;52231;40.090;18.348;2022-09-09T05:42:20;13.88;;;4.72;;
65581;SDS011;52231;40.090;18.348;2022-09-09T05:44:49;14.88;;;4.35;;
65581;SDS011;52231;40.090;18.348;2022-09-09T05:47:18;14.68;;;4.60;;
65581;SDS011;52231;40.090;18.348;2022-09-09T05:52:14;16.05;;;4.35;;
65581;SDS011;52231;40.090;18.348;2022-09-09T05:54:42;17.38;;;4.53;;
65581;SDS011;52231;40.090;18.348;2022-09-09T05:57:11;14.02;;;3.80;;
65581;SDS011;52231;40.090;18.348;2022-09-09T05:59:39;17.00;;;4.30;;
65581;SDS011;52231;40.090;18.348;2022-09-09T06:02:08;17.23;;;4.80;;
65581;SDS011;52231;40.090;18.348;2022-09-09T06:04:37;11.65;;;4.13;;
65581;SDS011;52231;40.090;18.348;2022-09-09T06:07:05;17.27;;;4.55;;
65581;SDS011;52231;40.090;18.348;2022-09-09T06:09:35;15.35;;;4.15;;
65581;SDS011;52231;40.090;18.348;2022-09-09T06:14:34;18.15;;;4.35;;
65581;SDS011;52231;40.090;18.348;2022-09-09T06:17:02;12.82;;;4.60;;
65581;SDS011;52231;40.090;18.348;2022-09-09T06:19:31;18.33;;;4.85;;
65581;SDS011;52231;40.090;18.348;2022-09-09T06:22:00;14.48;;;4.50;;
65581;SDS011;52231;40.090;18.348;2022-09-09T06:24:31;14.32;;;4.65;;
65581;SDS011;52231;40.090;18.348;2022-09-09T06:27:19;15.82;;;4.75;;
65581;SDS011;52231;40.090;18.348;2022-09-09T06:29:47;17.48;;;5.18;;
65581;SDS011;52231;40.090;18.348;2022-09-09T06:32:17;17.42;;;6.45;;
65581;SDS011;52231;40.090;18.348;2022-09-09T06:34:45;14.02;;;4.10;;
65581;SDS011;52231;40.090;18.348;2022-09-09T06:37:14;16.60;;;4.90;;
65581;SDS011;52231;40.090;18.348;2022-09-09T06:39:47;13.80;;;3.83;;
65581;SDS011;52231;40.090;18.348;2022-09-09T06:42:16;11.75;;;4.45;;
65581;SDS011;52231;40.090;18.348;2022-09-09T06:45:04;12.88;;;4.07;;
65581;SDS011;52231;40.090;18.348;2022-09-09T06:47:42;14.48;;;3.95;;
65581;SDS011;52231;40.090;18.348;2022-09-09T06:50:10;16.17;;;4.85;;
65581;SDS011;52231;40.090;18.348;2022-09-09T06:52:39;14.98;;;4.13;;
65581;SDS011;52231;40.090;18.348;2022-09-09T06:55:09;14.70;;;3.72;;
65581;SDS011;52231;40.090;18.348;2022-09-09T06:57:37;12.45;;;3.72;;
65581;SDS011;52231;40.090;18.348;2022-09-09T07:02:41;13.98;;;3.67;;
65581;SDS011;52231;40.090;18.348;2022-09-09T07:05:10;18.55;;;4.35;;
65581;SDS011;52231;40.090;18.348;2022-09-09T07:07:40;15.90;;;4.43;;
65581;SDS011;52231;40.090;18.348;2022-09-09T07:10:11;19.33;;;4.50;;
65581;SDS011;52231;40.090;18.348;2022-09-09T07:12:39;14.93;;;4.47;;
65581;SDS011;52231;40.090;18.348;2022-09-09T07:15:10;16.15;;;4.25;;
65581;SDS011;52231;40.090;18.348;2022-09-09T07:17:42;14.68;;;4.28;;
65581;SDS011;52231;40.090;18.348;2022-09-09T07:20:11;15.45;;;3.65;;
65581;SDS011;52231;40.090;18.348;2022-09-09T07:22:42;15.75;;;4.03;;
65581;SDS011;52231;40.090;18.348;2022-09-09T07:25:10;15.20;;;4.22;;
65581;SDS011;52231;40.090;18.348;2022-09-09T07:27:38;14.60;;;4.80;;
65581;SDS011;52231;40.090;18.348;2022-09-09T07:30:09;13.93;;;3.92;;
65581;SDS011;52231;40.090;18.348;2022-09-09T07:32:39;18.50;;;4.55;;
65581;SDS011;52231;40.090;18.348;2022-09-09T07:35:07;14.57;;;4.32;;
65581;SDS011;52231;40.090;18.348;2022-09-09T07:37:38;15.40;;;4.72;;
65581;SDS011;52231;40.090;18.348;2022-09-09T07:40:06;14.73;;;4.40;;
65581;SDS011;52231;40.090;18.348;2022-09-09T07:42:35;18.88;;;4.70;;
65581;SDS011;52231;40.090;18.348;2022-09-09T07:45:04;16.92;;;4.60;;
65581;SDS011;52231;40.090;18.348;2022-09-09T07:47:33;12.82;;;4.93;;
65581;SDS011;52231;40.090;18.348;2022-09-09T07:50:02;13.68;;;4.20;;
65581;SDS011;52231;40.090;18.348;2022-09-09T07:52:33;11.95;;;4.07;;
65581;SDS011;52231;40.090;18.348;2022-09-09T07:55:05;12.13;;;3.95;;
65581;SDS011;52231;40.090;18.348;2022-09-09T07:57:33;12.82;;;4.20;;
65581;SDS011;52231;40.090;18.348;2022-09-09T08:00:03;11.43;;;3.85;;
65581;SDS011;52231;40.090;18.348;2022-09-09T08:02:38;14.18;;;4.32;;
65581;SDS011;52231;40.090;18.348;2022-09-09T08:05:24;12.80;;;4.20;;
65581;SDS011;52231;40.090;18.348;2022-09-09T08:07:53;15.20;;;4.00;;
65581;SDS011;52231;40.090;18.348;2022-09-09T08:10:21;14.68;;;4.43;;
65581;SDS011;52231;40.090;18.348;2022-09-09T08:12:51;14.98;;;4.45;;
65581;SDS011;52231;40.090;18.348;2022-09-09T08:15:27;11.43;;;3.92;;
65581;SDS011;52231;40.090;18.348;2022-09-09T08:17:58;17.30;;;4.32;;
65581;SDS011;52231;40.090;18.348;2022-09-09T08:20:27;15.95;;;4.50;;
65581;SDS011;52231;40.090;18.348;2022-09-09T08:22:55;13.07;;;4.10;;
65581;SDS011;52231;40.090;18.348;2022-09-09T08:25:23;12.07;;;4.50;;
65581;SDS011;52231;40.090;18.348;2022-09-09T08:27:52;15.52;;;4.53;;
65581;SDS011;52231;40.090;18.348;2022-09-09T08:30:21;15.30;;;4.35;;
65581;SDS011;52231;40.090;18.348;2022-09-09T08:37:40;14.23;;;4.45;;
65581;SDS011;52231;40.090;18.348;2022-09-09T08:40:22;14.75;;;4.45;;
65581;SDS011;52231;40.090;18.348;2022-09-09T08:42:56;15.88;;;4.18;;
65581;SDS011;52231;40.090;18.348;2022-09-09T08:45:35;13.05;;;4.32;;
65581;SDS011;52231;40.090;18.348;2022-09-09T08:50:50;16.75;;;4.55;;
65581;SDS011;52231;40.090;18.348;2022-09-09T08:53:29;13.02;;;4.10;;
65581;SDS011;52231;40.090;18.348;2022-09-09T08:56:14;18.58;;;4.13;;
65581;SDS011;52231;40.090;18.348;2022-09-09T08:58:49;13.38;;;4.10;;
65581;SDS011;52231;40.090;18.348;2022-09-09T09:10:10;18.23;;;4.45;;
65581;SDS011;52231;40.090;18.348;2022-09-09T09:13:14;14.27;;;4.00;;
65581;SDS011;52231;40.090;18.348;2022-09-09T09:18:51;14.93;;;4.15;;
65581;SDS011;52231;40.090;18.348;2022-09-09T09:21:38;17.67;;;4.30;;
65581;SDS011;52231;40.090;18.348;2022-09-09T09:24:18;16.55;;;4.63;;
65581;SDS011;52231;40.090;18.348;2022-09-09T09:26:50;12.68;;;4.07;;
65581;SDS011;52231;40.090;18.348;2022-09-09T09:29:20;15.75;;;4.00;;
65581;SDS011;52231;40.090;18.348;2022-09-09T09:31:55;18.25;;;4.05;;
65581;SDS011;52231;40.090;18.348;2022-09-09T09:34:27;21.42;;;4.45;;
65581;SDS011;52231;40.090;18.348;2022-09-09T09:36:57;14.82;;;4.15;;
65581;SDS011;52231;40.090;18.348;2022-09-09T09:39:32;10.90;;;3.50;;
65581;SDS011;52231;40.090;18.348;2022-09-09T09:42:27;17.08;;;4.57;;
65581;SDS011;52231;40.090;18.348;2022-09-09T09:45:06;15.88;;;3.95;;
65581;SDS011;52231;40.090;18.348;2022-09-09T09:47:37;16.13;;;4.35;;
65581;SDS011;52231;40.090;18.348;2022-09-09T09:50:19;14.93;;;4.32;;
65581;SDS011;52231;40.090;18.348;2022-09-09T09:52:55;15.40;;;4.40;;
65581;SDS011;52231;40.090;18.348;2022-09-09T09:55:27;20.35;;;4.20;;
65581;SDS011;52231;40.090;18.348;2022-09-09T09:58:05;11.45;;;3.78;;
65581;SDS011;52231;40.090;18.348;2022-09-09T10:00:38;14.98;;;4.20;;
65581;SDS011;52231;40.090;18.348;2022-09-09T10:03:23;17.98;;;4.43;;
65581;SDS011;52231;40.090;18.348;2022-09-09T10:05:55;16.85;;;4.57;;
65581;SDS011;52231;40.090;18.348;2022-09-09T10:08:25;16.95;;;4.72;;
65581;SDS011;52231;40.090;18.348;2022-09-09T10:14:11;14.00;;;4.55;;
65581;SDS011;52231;40.090;18.348;2022-09-09T10:19:49;18.70;;;5.13;;
65581;SDS011;52231;40.090;18.348;2022-09-09T10:22:38;16.48;;;5.30;;
65581;SDS011;52231;40.090;18.348;2022-09-09T10:31:24;16.20;;;5.55;;
65581;SDS011;52231;40.090;18.348;2022-09-09T10:37:00;17.77;;;5.32;;
65581;SDS011;52231;40.090;18.348;2022-09-09T10:39:36;19.00;;;4.95;;
65581;SDS011;52231;40.090;18.348;2022-09-09T10:42:14;16.83;;;5.07;;
65581;SDS011;52231;40.090;18.348;2022-09-09T10:53:37;14.52;;;4.32;;
65581;SDS011;52231;40.090;18.348;2022-09-09T10:56:31;16.80;;;4.63;;
65581;SDS011;52231;40.090;18.348;2022-09-09T10:59:06;18.67;;;5.15;;
65581;SDS011;52231;40.090;18.348;2022-09-09T11:02:17;18.88;;;4.88;;
65581;SDS011;52231;40.090;18.348;2022-09-09T11:05:14;16.45;;;4.40;;
65581;SDS011;52231;40.090;18.348;2022-09-09T11:12:57;18.33;;;4.72;;
65581;SDS011;52231;40.090;18.348;2022-09-09T11:15:42;15.50;;;4.15;;
65581;SDS011;52231;40.090;18.348;2022-09-09T11:18:39;20.75;;;4.82;;
65581;SDS011;52231;40.090;18.348;2022-09-09T11:21:15;17.20;;;4.50;;
65581;SDS011;52231;40.090;18.348;2022-09-09T11:23:56;14.20;;;4.97;;
65581;SDS011;52231;40.090;18.348;2022-09-09T11:26:42;15.77;;;4.38;;
65581;SDS011;52231;40.090;18.348;2022-09-09T11:31:57;19.77;;;4.57;;
65581;SDS011;52231;40.090;18.348;2022-09-09T11:35:01;19.48;;;4.68;;
65581;SDS011;52231;40.090;18.348;2022-09-09T11:40:32;20.77;;;4.78;;
65581;SDS011;52231;40.090;18.348;2022-09-09T11:43:01;19.63;;;4.10;;
65581;SDS011;52231;40.090;18.348;2022-09-09T11:45:33;17.42;;;4.90;;
65581;SDS011;52231;40.090;18.348;2022-09-09T11:48:03;14.48;;;4.60;;
65581;SDS011;52231;40.090;18.348;2022-09-09T11:50:34;15.77;;;4.78;;
65581;SDS011;52231;40.090;18.348;2022-09-09T11:53:22;15.05;;;4.25;;
65581;SDS011;52231;40.090;18.348;2022-09-09T11:58:56;15.13;;;4.82;;
65581;SDS011;52231;40.090;18.348;2022-09-09T12:01:30;19.83;;;5.07;;
65581;SDS011;52231;40.090;18.348;2022-09-09T12:04:10;18.27;;;4.80;;
65581;SDS011;52231;40.090;18.348;2022-09-09T12:06:53;13.23;;;4.40;;
65581;SDS011;52231;40.090;18.348;2022-09-09T12:17:29;19.55;;;5.18;;
65581;SDS011;52231;40.090;18.348;2022-09-09T12:28:19;18.00;;;4.85;;
65581;SDS011;52231;40.090;18.348;2022-09-09T12:33:46;18.08;;;4.85;;
65581;SDS011;52231;40.090;18.348;2022-09-09T12:36:16;18.13;;;4.57;;
65581;SDS011;52231;40.090;18.348;2022-09-09T12:42:29;17.60;;;4.80;;
65581;SDS011;52231;40.090;18.348;2022-09-09T12:45:03;15.40;;;4.38;;
65581;SDS011;52231;40.090;18.348;2022-09-09T12:47:45;15.88;;;4.90;;
65581;SDS011;52231;40.090;18.348;2022-09-09T12:50:22;18.60;;;5.07;;
65581;SDS011;52231;40.090;18.348;2022-09-09T12:52:59;19.75;;;5.00;;
65581;SDS011;52231;40.090;18.348;2022-09-09T12:55:31;16.70;;;5.22;;
65581;SDS011;52231;40.090;18.348;2022-09-09T12:58:02;22.10;;;4.70;;
65581;SDS011;52231;40.090;18.348;2022-09-09T13:00:34;19.83;;;4.80;;
65581;SDS011;52231;40.090;18.348;2022-09-09T13:03:14;19.88;;;5.57;;
65581;SDS011;52231;40.090;18.348;2022-09-09T13:05:49;15.32;;;4.68;;
65581;SDS011;52231;40.090;18.348;2022-09-09T13:08:18;18.58;;;4.93;;
65581;SDS011;52231;40.090;18.348;2022-09-09T13:10:54;19.30;;;5.00;;
65581;SDS011;52231;40.090;18.348;2022-09-09T13:16:06;17.38;;;5.50;;
65581;SDS011;52231;40.090;18.348;2022-09-09T13:19:09;17.70;;;4.88;;
65581;SDS011;52231;40.090;18.348;2022-09-09T13:21:48;21.95;;;5.22;;
65581;SDS011;52231;40.090;18.348;2022-09-09T13:24:33;17.50;;;4.95;;
65581;SDS011;52231;40.090;18.348;2022-09-09T13:27:19;21.58;;;5.05;;
65581;SDS011;52231;40.090;18.348;2022-09-09T13:30:34;21.45;;;5.75;;
65581;SDS011;52231;40.090;18.348;2022-09-09T13:38:22;18.48;;;5.53;;
65581;SDS011;52231;40.090;18.348;2022-09-09T13:43:34;17.08;;;5.07;;
65581;SDS011;52231;40.090;18.348;2022-09-09T13:54:06;15.77;;;5.18;;
65581;SDS011;52231;40.090;18.348;2022-09-09T13:56:38;16.95;;;5.35;;
65581;SDS011;52231;40.090;18.348;2022-09-09T13:59:11;20.55;;;5.38;;
65581;SDS011;52231;40.090;18.348;2022-09-09T14:01:47;19.15;;;5.68;;
65581;SDS011;52231;40.090;18.348;2022-09-09T14:04:16;19.80;;;5.45;;
65581;SDS011;52231;40.090;18.348;2022-09-09T14:06:44;18.30;;;5.47;;
65581;SDS011;52231;40.090;18.348;2022-09-09T14:09:13;18.20;;;5.63;;
65581;SDS011;52231;40.090;18.348;2022-09-09T14:11:43;22.45;;;5.78;;
65581;SDS011;52231;40.090;18.348;2022-09-09T14:14:15;21.45;;;5.72;;
65581;SDS011;52231;40.090;18.348;2022-09-09T14:16:43;25.55;;;5.93;;
65581;SDS011;52231;40.090;18.348;2022-09-09T14:19:12;20.45;;;5.78;;
65581;SDS011;52231;40.090;18.348;2022-09-09T14:21:40;15.65;;;5.60;;
65581;SDS011;52231;40.090;18.348;2022-09-09T14:24:08;24.92;;;6.63;;
65581;SDS011;52231;40.090;18.348;2022-09-09T14:26:36;29.02;;;6.43;;
65581;SDS011;52231;40.090;18.348;2022-09-09T14:29:04;21.05;;;6.38;;
65581;SDS011;52231;40.090;18.348;2022-09-09T14:31:34;23.45;;;6.15;;
65581;SDS011;52231;40.090;18.348;2022-09-09T14:34:03;21.48;;;6.18;;
65581;SDS011;52231;40.090;18.348;2022-09-09T14:36:31;22.70;;;6.82;;
65581;SDS011;52231;40.090;18.348;2022-09-09T14:38:59;20.50;;;7.30;;
65581;SDS011;52231;40.090;18.348;2022-09-09T14:41:27;20.85;;;6.32;;
65581;SDS011;52231;40.090;18.348;2022-09-09T14:43:56;22.63;;;6.45;;
65581;SDS011;52231;40.090;18.348;2022-09-09T14:46:25;23.98;;;7.13;;
65581;SDS011;52231;40.090;18.348;2022-09-09T14:48:53;23.33;;;7.18;;
65581;SDS011;52231;40.090;18.348;2022-09-09T14:51:23;23.85;;;7.03;;
65581;SDS011;52231;40.090;18.348;2022-09-09T14:53:55;23.48;;;7.18;;
65581;SDS011;52231;40.090;18.348;2022-09-09T14:56:27;19.17;;;6.78;;
65581;SDS011;52231;40.090;18.348;2022-09-09T14:58:57;20.60;;;6.63;;
65581;SDS011;52231;40.090;18.348;2022-09-09T15:01:28;21.50;;;6.80;;
65581;SDS011;52231;40.090;18.348;2022-09-09T15:03:59;20.30;;;6.78;;
65581;SDS011;52231;40.090;18.348;2022-09-09T15:06:30;23.95;;;7.43;;
65581;SDS011;52231;40.090;18.348;2022-09-09T15:09:06;16.90;;;6.75;;
65581;SDS011;52231;40.090;18.348;2022-09-09T15:11:35;27.77;;;7.70;;
65581;SDS011;52231;40.090;18.348;2022-09-09T15:14:05;25.80;;;6.70;;
65581;SDS011;52231;40.090;18.348;2022-09-09T15:16:35;24.30;;;6.43;;
65581;SDS011;52231;40.090;18.348;2022-09-09T15:19:04;21.10;;;6.25;;
65581;SDS011;52231;40.090;18.348;2022-09-09T15:21:33;24.25;;;7.00;;
65581;SDS011;52231;40.090;18.348;2022-09-09T15:24:03;25.35;;;7.20;;
65581;SDS011;52231;40.090;18.348;2022-09-09T15:26:32;21.25;;;6.63;;
65581;SDS011;52231;40.090;18.348;2022-09-09T15:29:00;22.80;;;6.75;;
65581;SDS011;52231;40.090;18.348;2022-09-09T15:31:29;25.13;;;6.55;;
65581;SDS011;52231;40.090;18.348;2022-09-09T15:34:03;24.23;;;6.45;;
65581;SDS011;52231;40.090;18.348;2022-09-09T15:36:51;25.17;;;6.78;;
65581;SDS011;52231;40.090;18.348;2022-09-09T15:39:19;23.88;;;6.65;;
65581;SDS011;52231;40.090;18.348;2022-09-09T15:41:49;22.20;;;6.88;;
65581;SDS011;52231;40.090;18.348;2022-09-09T15:44:18;23.95;;;6.25;;
65581;SDS011;52231;40.090;18.348;2022-09-09T15:46:50;24.98;;;6.80;;
65581;SDS011;52231;40.090;18.348;2022-09-09T15:49:23;17.33;;;6.32;;
65581;SDS011;52231;40.090;18.348;2022-09-09T15:51:53;21.27;;;6.25;;
65581;SDS011;52231;40.090;18.348;2022-09-09T15:54:25;25.08;;;7.40;;
65581;SDS011;52231;40.090;18.348;2022-09-09T15:56:54;19.50;;;6.93;;
65581;SDS011;52231;40.090;18.348;2022-09-09T15:59:24;21.85;;;7.18;;
65581;SDS011;52231;40.090;18.348;2022-09-09T16:01:55;29.05;;;7.47;;
65581;SDS011;52231;40.090;18.348;2022-09-09T16:04:23;23.27;;;7.07;;
65581;SDS011;52231;40.090;18.348;2022-09-09T16:06:59;36.53;;;7.78;;
65581;SDS011;52231;40.090;18.348;2022-09-09T16:09:29;21.80;;;7.60;;
65581;SDS011;52231;40.090;18.348;2022-09-09T16:11:58;23.52;;;7.25;;
65581;SDS011;52231;40.090;18.348;2022-09-09T16:14:33;27.92;;;7.85;;
65581;SDS011;52231;40.090;18.348;2022-09-09T16:17:03;24.20;;;7.45;;
65581;SDS011;52231;40.090;18.348;2022-09-09T16:19:32;25.05;;;7.82;;
65581;SDS011;52231;40.090;18.348;2022-09-09T16:22:01;24.52;;;8.02;;
65581;SDS011;52231;40.090;18.348;2022-09-09T16:24:31;28.05;;;7.95;;
65581;SDS011;52231;40.090;18.348;2022-09-09T16:26:59;25.10;;;7.90;;
65581;SDS011;52231;40.090;18.348;2022-09-09T16:31:55;24.90;;;7.20;;
65581;SDS011;52231;40.090;18.348;2022-09-09T16:34:26;23.95;;;7.78;;
65581;SDS011;52231;40.090;18.348;2022-09-09T16:36:54;22.60;;;8.13;;
65581;SDS011;52231;40.090;18.348;2022-09-09T16:41:50;21.35;;;7.53;;
65581;SDS011;52231;40.090;18.348;2022-09-09T16:44:19;28.90;;;7.43;;
65581;SDS011;52231;40.090;18.348;2022-09-09T16:49:16;24.48;;;7.60;;
65581;SDS011;52231;40.090;18.348;2022-09-09T16:51:47;28.60;;;7.53;;
65581;SDS011;52231;40.090;18.348;2022-09-09T16:54:17;27.25;;;8.40;;
65581;SDS011;52231;40.090;18.348;2022-09-09T16:56:46;28.98;;;8.32;;
65581;SDS011;52231;40.090;18.348;2022-09-09T16:59:17;26.05;;;8.18;;
65581;SDS011;52231;40.090;18.348;2022-09-09T17:01:47;27.02;;;7.43;;
65581;SDS011;52231;40.090;18.348;2022-09-09T17:04:18;26.27;;;8.02;;
65581;SDS011;52231;40.090;18.348;2022-09-09T17:06:49;22.55;;;7.95;;
65581;SDS011;52231;40.090;18.348;2022-09-09T17:09:19;24.60;;;8.25;;
65581;SDS011;52231;40.090;18.348;2022-09-09T17:11:48;20.90;;;7.72;;
65581;SDS011;52231;40.090;18.348;2022-09-09T17:14:20;26.23;;;7.30;;
65581;SDS011;52231;40.090;18.348;2022-09-09T17:16:49;27.80;;;8.68;;
65581;SDS011;52231;40.090;18.348;2022-09-09T17:21:45;26.92;;;7.85;;
65581;SDS011;52231;40.090;18.348;2022-09-09T17:24:34;25.63;;;8.45;;
65581;SDS011;52231;40.090;18.348;2022-09-09T17:27:05;23.27;;;7.82;;
65581;SDS011;52231;40.090;18.348;2022-09-09T17:29:33;26.80;;;8.75;;
65581;SDS011;52231;40.090;18.348;2022-09-09T17:32:03;23.17;;;7.90;;
65581;SDS011;52231;40.090;18.348;2022-09-09T17:34:33;24.77;;;8.70;;
65581;SDS011;52231;40.090;18.348;2022-09-09T17:37:04;30.67;;;9.38;;
65581;SDS011;52231;40.090;18.348;2022-09-09T17:39:35;27.80;;;9.52;;
65581;SDS011;52231;40.090;18.348;2022-09-09T17:42:03;28.45;;;8.38;;
65581;SDS011;52231;40.090;18.348;2022-09-09T17:44:31;28.13;;;9.18;;
65581;SDS011;52231;40.090;18.348;2022-09-09T17:46:59;33.35;;;9.45;;
65581;SDS011;52231;40.090;18.348;2022-09-09T17:49:27;36.75;;;9.13;;
65581;SDS011;52231;40.090;18.348;2022-09-09T17:51:56;33.92;;;8.98;;
65581;SDS011;52231;40.090;18.348;2022-09-09T17:54:24;31.27;;;10.25;;